This is the latest recevied weather packets stored in our database for station/object OK1VCF-6. If no packets are shown the sender has not sent any weather packets the latest 10 day(s).
| Time | Temp. | Humidity | Pressure | Rain* | Wind** | Luminosity | Snow |
|---|---|---|---|---|---|---|---|
| 1788252898 | 15.56° C | 82% | 1021.6 hPa | - | - | - | - |
| 1788252067 | 15.56° C | 84% | 1021.6 hPa | - | - | - | - |
| 1788251987 | 15.56° C | 84% | 1021.6 hPa | - | - | - | - |
| 1788250186 | 15° C | 86% | 1021.2 hPa | - | - | - | - |
| 1788249286 | 14.44° C | 86% | 1021.2 hPa | - | - | - | - |
| 1788248384 | 14.44° C | 86% | 1021 hPa | - | - | - | - |
| 1788243880 | 13.33° C | 90% | 1020.7 hPa | - | - | - | - |
| 1788242079 | 13.33° C | 89% | 1020.6 hPa | - | - | - | - |
| 1788241182 | 13.33° C | 90% | 1020.5 hPa | - | - | - | - |
| 1788239358 | 13.33° C | 89% | 1020.3 hPa | - | - | - | - |
| 1788237556 | 13.33° C | 89% | 1020 hPa | - | - | - | - |
| 1788236656 | 13.33° C | 88% | 1019.9 hPa | - | - | - | - |
| 1788222291 | 14.44° C | 84% | 1019.3 hPa | - | - | - | - |
| 1788221380 | 15° C | 84% | 1019.2 hPa | - | - | - | - |
| 1788218641 | 15.56° C | 84% | 1019.3 hPa | - | - | - | - |
| 1788212337 | 15.56° C | 83% | 1019 hPa | - | - | - | - |
| 1788211436 | 15.56° C | 84% | 1018.8 hPa | - | - | - | - |
| 1788206033 | 15.56° C | 88% | 1018.3 hPa | - | - | - | - |
| 1788204269 | 15.56° C | 90% | 1018.2 hPa | - | - | - | - |
| 1788204223 | 15.56° C | 90% | 1018.2 hPa | - | - | - | - |
| 1788201646 | 15° C | 90% | 1018 hPa | - | - | - | - |
| 1788201518 | 15° C | 90% | 1018 hPa | - | - | - | - |
| 1788200759 | 14.44° C | 90% | 1017.9 hPa | - | - | - | - |
| 1788200617 | 14.44° C | 90% | 1017.9 hPa | - | - | - | - |
| 1788198816 | 15.56° C | 90% | 1017.5 hPa | - | - | - | - |
* Rain since midnight (hover to see other rain measurements)
** Current wind speed in m/s (hover to see current wind gust speed)